Time;durP1;ratioP1;P1;durP2;ratioP2;P2;SDS_P1;SDS_P2;PMS_P1;PMS_P2;Temp;Humidity;BMP_temperature;BMP_pressure;BME280_temperature;BME280_humidity;BME280_pressure;Samples;Min_cycle;Max_cycle;Signal;HPM_P1;HPM_P2
2021/10/19 00:02:16;;;;;;;16.77;14.65;;;;;;;10.28;78.54;100958.50;10220804;28;20086;-59
2021/10/19 00:07:18;;;;;;;17.63;14.32;;;;;;;10.28;78.23;100950.50;10218536;28;20055;-59
2021/10/19 00:12:19;;;;;;;17.85;15.95;;;;;;;10.25;78.19;100950.72;10219638;28;20057;-58
2021/10/19 00:17:20;;;;;;;17.75;14.98;;;;;;;10.25;77.78;100942.72;10217951;28;20378;-59
2021/10/19 00:22:22;;;;;;;17.08;14.52;;;;;;;10.17;78.81;100937.09;10213775;28;20110;-59
2021/10/19 00:27:23;;;;;;;17.02;14.85;;;;;;;10.27;78.36;100943.50;10215125;28;20082;-59
2021/10/19 00:32:25;;;;;;;18.98;14.95;;;;;;;10.24;78.55;100944.56;10222325;28;20081;-59
2021/10/19 00:37:26;;;;;;;18.20;16.30;;;;;;;10.30;78.34;100951.28;10219945;28;20166;-58
2021/10/19 00:42:28;;;;;;;18.27;15.63;;;;;;;10.34;78.62;100963.41;10219403;28;20808;-59
2021/10/19 00:47:29;;;;;;;17.40;15.55;;;;;;;10.26;77.93;100963.91;10216028;28;20078;-59
2021/10/19 00:52:31;;;;;;;19.23;15.98;;;;;;;10.25;78.29;100964.91;10223884;28;20141;-59
2021/10/19 00:57:32;;;;;;;17.75;15.52;;;;;;;10.24;77.95;100944.56;10217081;28;20532;-58
2021/10/19 01:02:35;;;;;;;19.10;16.30;;;;;;;10.22;78.78;100940.28;10214688;28;20142;-59
2021/10/19 01:07:37;;;;;;;18.27;14.80;;;;;;;10.20;78.08;100916.44;10219972;28;20416;-59
2021/10/19 01:12:39;;;;;;;17.63;14.32;;;;;;;10.24;78.03;100923.25;10233967;28;20047;-59
2021/10/19 01:17:45;;;;;;;17.30;15.23;;;;;;;10.21;77.56;100922.63;10227744;28;22162;-59
2021/10/19 01:22:47;;;;;;;17.40;15.45;;;;;;;10.24;77.33;100917.94;10219701;28;20051;-60
2021/10/19 01:27:55;;;;;;;17.55;15.27;;;;;;;10.23;77.66;100921.56;10221644;28;20067;-58
2021/10/19 01:32:57;;;;;;;16.83;15.10;;;;;;;10.23;77.13;100904.75;10222949;28;20062;-59
2021/10/19 01:37:58;;;;;;;15.20;13.65;;;;;;;10.21;77.37;100912.84;10227136;28;20122;-59
2021/10/19 01:43:00;;;;;;;16.38;14.63;;;;;;;10.22;77.29;100909.22;10224079;28;20090;-59
2021/10/19 01:48:01;;;;;;;15.02;13.52;;;;;;;10.21;77.09;100904.84;10216544;28;20063;-59
2021/10/19 01:53:08;;;;;;;15.93;13.45;;;;;;;10.22;77.11;100903.91;10247412;28;20071;-59
2021/10/19 01:58:11;;;;;;;16.42;14.55;;;;;;;10.22;77.28;100903.91;10261451;28;20070;-59
2021/10/19 02:03:12;;;;;;;15.70;13.93;;;;;;;10.25;77.31;100890.38;10263749;28;20102;-59
2021/10/19 02:08:14;;;;;;;15.90;14.15;;;;;;;10.19;77.59;100877.50;10263179;28;20078;-59
2021/10/19 02:13:15;;;;;;;16.67;14.43;;;;;;;10.09;77.58;100861.31;10262726;28;20084;-59
2021/10/19 02:18:17;;;;;;;16.88;15.00;;;;;;;10.14;77.32;100874.31;10266690;28;20050;-59
2021/10/19 02:23:18;;;;;;;17.20;14.32;;;;;;;10.19;77.88;100866.88;10265442;28;20086;-59
2021/10/19 02:28:19;;;;;;;16.05;14.32;;;;;;;10.15;77.87;100865.38;10266166;28;20073;-59
2021/10/19 02:33:21;;;;;;;17.05;14.43;;;;;;;10.20;78.35;100873.03;10260754;28;23916;-59
2021/10/19 02:38:24;;;;;;;18.88;15.82;;;;;;;10.21;78.07;100859.63;10263881;28;20050;-58
2021/10/19 02:43:25;;;;;;;18.38;15.32;;;;;;;10.30;78.51;100868.78;10265167;28;20095;-59
2021/10/19 02:48:27;;;;;;;15.32;13.70;;;;;;;10.36;78.15;100862.22;10262718;28;20143;-59
2021/10/19 02:53:28;;;;;;;20.30;15.80;;;;;;;10.41;78.78;100860.06;10262190;28;20075;-60
2021/10/19 02:58:30;;;;;;;17.85;15.43;;;;;;;10.34;78.92;100843.66;10265972;28;20129;-58
2021/10/19 03:03:31;;;;;;;18.27;16.35;;;;;;;10.31;79.34;100835.03;10267389;28;20141;-59
2021/10/19 03:08:33;;;;;;;18.05;16.15;;;;;;;10.31;79.81;100838.53;10261552;28;20075;-59
2021/10/19 03:13:34;;;;;;;19.30;17.00;;;;;;;10.30;80.14;100843.97;10269216;28;20082;-59
2021/10/19 03:18:49;;;;;;;19.17;17.17;;;;;;;10.23;80.56;100854.19;10268373;28;20078;-59
2021/10/19 03:23:50;;;;;;;20.40;16.15;;;;;;;10.16;80.91;100845.78;10265457;28;20051;-58
2021/10/19 03:28:52;;;;;;;19.90;16.52;;;;;;;10.17;81.21;100858.13;10263291;28;20059;-59
2021/10/19 03:33:53;;;;;;;21.95;17.92;;;;;;;10.18;81.11;100859.84;10268690;28;20853;-59
2021/10/19 03:38:54;;;;;;;19.98;16.67;;;;;;;10.08;82.01;100853.44;10266162;28;20512;-59
2021/10/19 03:43:56;;;;;;;18.60;16.70;;;;;;;9.95;83.46;100845.44;10267148;28;20154;-59
2021/10/19 03:48:57;;;;;;;22.55;17.67;;;;;;;10.04;83.90;100857.25;10267158;28;20491;-59
2021/10/19 03:53:59;;;;;;;22.00;19.65;;;;;;;9.90;83.49;100858.22;10264796;28;20145;-59
2021/10/19 03:59:00;;;;;;;21.05;18.25;;;;;;;9.87;83.33;100861.09;10258330;28;20074;-59
2021/10/19 04:04:02;;;;;;;19.23;17.23;;;;;;;9.84;83.79;100867.44;10259584;28;20133;-58
2021/10/19 04:09:04;;;;;;;20.25;18.05;;;;;;;9.99;83.56;100864.72;10257393;28;20138;-59
2021/10/19 04:14:07;;;;;;;21.45;18.77;;;;;;;10.04;82.48;100851.94;10258155;28;20082;-59
2021/10/19 04:19:09;;;;;;;19.60;17.60;;;;;;;10.09;83.97;100871.13;10258660;28;20458;-59
2021/10/19 04:24:10;;;;;;;20.88;18.15;;;;;;;10.17;82.30;100866.09;10260712;28;20074;-59
2021/10/19 04:29:12;;;;;;;20.92;18.83;;;;;;;9.98;82.85;100874.50;10255456;28;20074;-59
2021/10/19 04:34:14;;;;;;;22.30;18.88;;;;;;;10.00;83.70;100866.44;10261474;28;20398;-59
2021/10/19 04:39:15;;;;;;;20.88;17.95;;;;;;;9.90;83.94;100861.72;10250887;28;20464;-58
2021/10/19 04:44:17;;;;;;;21.27;18.08;;;;;;;9.88;84.08;100858.31;10257959;28;20054;-58
2021/10/19 04:49:18;;;;;;;23.00;18.60;;;;;;;9.88;84.54;100863.63;10277520;28;20078;-58
2021/10/19 04:54:20;;;;;;;20.50;18.15;;;;;;;9.92;84.17;100874.91;10267938;28;20110;-58
2021/10/19 04:59:21;;;;;;;20.08;17.95;;;;;;;9.89;84.89;100870.66;10264212;28;20117;-58
2021/10/19 05:04:22;;;;;;;22.33;19.25;;;;;;;9.83;84.15;100856.91;10259099;28;20051;-58
2021/10/19 05:09:24;;;;;;;24.75;19.83;;;;;;;9.80;84.06;100849.16;10264617;28;20070;-62
2021/10/19 05:14:25;;;;;;;21.58;19.27;;;;;;;9.70;84.41;100843.63;10267369;28;20090;-60
2021/10/19 05:19:27;;;;;;;26.27;20.50;;;;;;;9.71;84.49;100851.50;10266879;28;20078;-60
2021/10/19 05:24:28;;;;;;;23.98;21.25;;;;;;;9.75;86.24;100854.78;10264375;28;20071;-58
2021/10/19 05:29:30;;;;;;;22.60;18.52;;;;;;;9.73;85.32;100838.09;10261573;28;20055;-59
2021/10/19 05:34:32;;;;;;;21.40;18.25;;;;;;;9.82;86.09;100841.94;10265110;28;20126;-59
2021/10/19 05:39:33;;;;;;;20.75;18.17;;;;;;;9.95;85.77;100836.63;10287744;23;20082;-63
2021/10/19 05:44:35;;;;;;;20.35;17.52;;;;;;;9.96;84.61;100838.34;10272558;28;20057;-63
2021/10/19 05:49:36;;;;;;;22.05;17.80;;;;;;;9.91;85.40;100831.50;10276303;28;20051;-63
2021/10/19 05:54:38;;;;;;;20.17;17.58;;;;;;;9.77;86.25;100830.75;10278917;28;20101;-62
2021/10/19 05:59:39;;;;;;;16.15;14.50;;;;;;;9.79;86.25;100832.38;10270037;28;20497;-64
2021/10/19 06:04:41;;;;;;;16.20;14.57;;;;;;;9.77;86.74;100849.38;10273359;28;20484;-59
2021/10/19 06:09:42;;;;;;;16.10;14.40;;;;;;;9.94;85.38;100850.88;10270272;28;20070;-63
2021/10/19 06:14:44;;;;;;;16.20;13.38;;;;;;;9.66;87.04;100844.78;10267539;28;20130;-64
2021/10/19 06:19:47;;;;;;;17.63;15.82;;;;;;;9.70;87.04;100836.50;10273861;28;20131;-64
2021/10/19 06:24:49;;;;;;;15.93;14.30;;;;;;;9.77;87.46;100842.22;10302945;28;20049;-64
2021/10/19 06:29:50;;;;;;;16.23;14.52;;;;;;;9.78;86.67;100835.97;10269476;28;20744;-63
2021/10/19 06:34:52;;;;;;;14.57;13.07;;;;;;;9.81;87.71;100850.88;10270284;28;20137;-64
2021/10/19 06:39:53;;;;;;;15.20;13.60;;;;;;;9.73;87.74;100846.06;10269278;28;20266;-63
2021/10/19 06:44:55;;;;;;;15.68;12.98;;;;;;;9.78;87.39;100825.34;10264810;28;20059;-63
2021/10/19 06:49:57;;;;;;;15.98;12.88;;;;;;;9.79;87.66;100831.50;10267214;28;20054;-63
2021/10/19 06:54:59;;;;;;;14.52;13.02;;;;;;;9.93;87.50;100833.22;10275209;28;20067;-63
2021/10/19 07:00:03;;;;;;;15.25;13.20;;;;;;;9.93;88.42;100823.44;10269817;28;20082;-63
2021/10/19 07:05:05;;;;;;;13.43;12.02;;;;;;;10.00;87.89;100832.69;10272563;28;20051;-63
2021/10/19 07:10:08;;;;;;;13.57;12.27;;;;;;;10.15;88.07;100828.13;10268184;28;20779;-63
2021/10/19 07:15:10;;;;;;;14.30;12.73;;;;;;;9.94;88.02;100829.59;10273645;28;20566;-63
2021/10/19 07:20:12;;;;;;;14.32;12.90;;;;;;;10.02;88.80;100819.28;10272263;28;20125;-63
2021/10/19 07:25:13;;;;;;;16.15;14.38;;;;;;;9.94;89.04;100829.59;10283890;28;20677;-63
2021/10/19 07:30:16;;;;;;;15.07;13.55;;;;;;;9.88;90.48;100829.06;10278688;28;20055;-63
2021/10/19 07:35:18;;;;;;;13.65;12.20;;;;;;;10.00;90.14;100818.56;10271832;28;20093;-63
2021/10/19 07:40:20;;;;;;;14.05;12.65;;;;;;;10.11;91.00;100813.34;10270144;28;20144;-64
2021/10/19 07:45:23;;;;;;;12.73;11.52;;;;;;;10.22;90.30;100816.09;10279041;28;20572;-63
2021/10/19 07:50:29;;;;;;;12.68;11.38;;;;;;;10.38;89.66;100817.72;10280849;28;20132;-64
2021/10/19 07:55:33;;;;;;;12.75;11.48;;;;;;;10.39;90.48;100814.09;10278774;28;20043;-63
2021/10/19 08:00:35;;;;;;;11.82;10.73;;;;;;;10.37;90.38;100806.22;10271385;28;20407;-62
2021/10/19 08:05:37;;;;;;;11.18;10.02;;;;;;;10.41;90.81;100810.34;10265713;28;20093;-62
2021/10/19 08:10:41;;;;;;;11.88;10.25;;;;;;;10.50;91.70;100810.66;10271571;28;20089;-63
2021/10/19 08:15:42;;;;;;;10.07;9.07;;;;;;;10.49;91.50;100803.63;10271045;28;20655;-64
2021/10/19 08:20:44;;;;;;;9.52;8.63;;;;;;;10.68;92.12;100797.84;10270683;28;20046;-62
2021/10/19 08:25:46;;;;;;;9.80;8.90;;;;;;;10.82;91.18;100795.00;10267553;28;20065;-63
2021/10/19 08:30:49;;;;;;;8.77;7.75;;;;;;;10.89;90.26;100796.28;10268585;28;20066;-63
2021/10/19 08:35:51;;;;;;;14.40;9.70;;;;;;;10.98;90.86;100810.75;10267300;28;20483;-63
2021/10/19 08:40:56;;;;;;;8.45;7.72;;;;;;;11.01;90.47;100799.84;10263019;28;20047;-64
2021/10/19 08:45:57;;;;;;;7.57;6.88;;;;;;;11.07;90.78;100795.91;10273963;28;20133;-64
2021/10/19 08:50:59;;;;;;;6.38;5.57;;;;;;;10.99;92.00;100795.59;10270291;28;20058;-64
2021/10/19 08:56:01;;;;;;;5.45;4.95;;;;;;;11.01;91.73;100799.00;10269205;28;20097;-64
2021/10/19 09:01:08;;;;;;;6.45;5.80;;;;;;;11.08;92.43;100795.78;10278432;28;20055;-63
2021/10/19 09:06:11;;;;;;;5.45;4.57;;;;;;;11.15;91.93;100801.50;10266582;28;20136;-65
2021/10/19 09:11:15;;;;;;;5.10;4.68;;;;;;;11.07;91.87;100803.88;10299288;28;20050;-64
2021/10/19 09:16:17;;;;;;;;;;;;;;;11.15;93.42;100801.50;10272041;28;20124;-64
2021/10/19 09:21:30;;;;;;;4.80;4.40;;;;;;;11.31;91.92;100796.72;10272860;28;20011;-63
2021/10/19 09:26:31;;;;;;;5.57;4.75;;;;;;;11.41;90.94;100783.56;10273350;28;20082;-66
2021/10/19 09:31:37;;;;;;;6.05;3.97;;;;;;;11.52;90.51;100793.41;10274248;28;20486;-63
2021/10/19 09:36:39;;;;;;;6.82;4.63;;;;;;;11.58;89.99;100787.59;10280858;28;20581;-63
2021/10/19 09:41:45;;;;;;;5.03;4.53;;;;;;;11.54;90.43;100791.47;10272896;28;20142;-64
2021/10/19 09:46:46;;;;;;;4.80;4.32;;;;;;;11.60;90.28;100796.31;10272015;28;20105;-63
2021/10/19 09:51:48;;;;;;;6.25;4.68;;;;;;;11.67;91.13;100783.38;10278071;28;20062;-63
2021/10/19 09:56:50;;;;;;;4.38;3.97;;;;;;;11.81;90.62;100783.19;10289202;28;20077;-63
2021/10/19 10:01:52;;;;;;;4.90;4.40;;;;;;;11.80;90.82;100788.63;10318665;28;20046;-63
2021/10/19 10:06:56;;;;;;;5.68;5.18;;;;;;;11.82;91.97;100779.53;10315236;28;20129;-63
2021/10/19 10:11:57;;;;;;;6.18;5.38;;;;;;;11.79;92.01;100786.94;10320822;28;20058;-68
2021/10/19 10:17:09;;;;;;;6.25;5.65;;;;;;;11.61;92.42;100782.03;10318036;28;20082;-64
2021/10/19 10:22:28;;;;;;;6.88;6.28;;;;;;;11.46;94.52;100777.88;10282014;28;20078;-63
2021/10/19 10:27:30;;;;;;;8.43;7.50;;;;;;;11.48;94.83;100773.28;10280251;28;20109;-64
2021/10/19 10:32:36;;;;;;;8.50;7.72;;;;;;;11.55;94.85;100766.50;10292699;28;20081;-65
2021/10/19 10:37:51;;;;;;;9.25;7.97;;;;;;;11.62;95.22;100769.53;10297261;28;20101;-65
2021/10/19 10:42:54;;;;;;;8.38;7.07;;;;;;;11.60;94.96;100772.31;10270413;28;20376;-64
2021/10/19 10:48:06;;;;;;;9.50;8.68;;;;;;;11.73;95.37;100764.25;10269687;28;20075;-63
2021/10/19 10:53:10;;;;;;;9.02;8.13;;;;;;;11.87;94.68;100757.84;10273499;28;20453;-64
2021/10/19 10:58:25;;;;;;;10.83;9.83;;;;;;;12.08;94.36;100757.16;10268501;28;20494;-65
2021/10/19 11:03:26;;;;;;;11.63;10.43;;;;;;;12.10;94.18;100750.75;10272332;28;21026;-63
2021/10/19 11:08:34;;;;;;;14.38;12.95;;;;;;;11.99;95.54;100746.25;10267941;28;20057;-63
2021/10/19 11:14:00;;;;;;;13.50;12.27;;;;;;;12.01;96.15;100746.13;10275908;28;20082;-65
2021/10/19 11:19:12;;;;;;;17.83;16.23;;;;;;;12.08;96.47;100746.50;10272516;28;20198;-63
2021/10/19 11:24:14;;;;;;;16.88;15.18;;;;;;;12.13;96.28;100738.94;10273082;28;20046;-64
2021/10/19 11:29:16;;;;;;;18.17;16.33;;;;;;;12.13;97.53;100730.94;10271396;28;20746;-66
2021/10/19 11:34:18;;;;;;;19.92;17.98;;;;;;;12.13;98.11;100717.59;10271837;28;20086;-64
2021/10/19 11:39:27;;;;;;;18.30;16.58;;;;;;;12.20;98.01;100718.81;10252706;23;20134;-58
2021/10/19 11:44:33;;;;;;;16.60;15.00;;;;;;;12.40;97.25;100705.69;10203136;28;20746;-59
2021/10/19 11:49:40;;;;;;;16.55;15.05;;;;;;;12.27;98.42;100701.34;10200015;28;20050;-58
2021/10/19 11:54:42;;;;;;;16.80;15.20;;;;;;;12.37;98.10;100702.31;10206906;28;20583;-59
2021/10/19 11:59:48;;;;;;;15.85;14.30;;;;;;;12.37;97.72;100704.97;10200611;28;20592;-59
2021/10/19 12:04:50;;;;;;;16.85;15.18;;;;;;;12.30;98.69;100700.25;10200444;28;20166;-59
2021/10/19 12:09:52;;;;;;;17.50;15.98;;;;;;;12.37;99.09;100688.97;10196806;28;20063;-59
2021/10/19 12:14:55;;;;;;;17.98;15.52;;;;;;;12.42;98.75;100682.41;10205888;28;20479;-59
2021/10/19 12:19:57;;;;;;;17.90;16.00;;;;;;;12.48;98.79;100679.22;10208999;28;20125;-60
2021/10/19 12:24:58;;;;;;;17.23;15.55;;;;;;;12.55;98.36;100669.75;10202546;28;20146;-58
2021/10/19 12:30:00;;;;;;;17.25;15.45;;;;;;;12.67;97.47;100679.41;10203880;28;20569;-58
2021/10/19 12:35:02;;;;;;;18.10;15.68;;;;;;;12.68;97.30;100654.38;10200921;28;20062;-59
2021/10/19 12:40:10;;;;;;;16.20;14.77;;;;;;;12.69;97.09;100656.09;10206808;28;20101;-59
2021/10/19 12:45:11;;;;;;;18.30;16.52;;;;;;;12.79;96.90;100641.94;10204680;28;20095;-62
2021/10/19 12:50:13;;;;;;;17.83;16.08;;;;;;;12.80;96.39;100638.31;10204069;28;20130;-60
2021/10/19 12:55:14;;;;;;;16.50;14.85;;;;;;;12.85;96.29;100633.41;10198766;28;20129;-60
2021/10/19 13:00:16;;;;;;;16.92;15.32;;;;;;;12.87;96.18;100626.16;10203692;28;20437;-60
2021/10/19 13:05:19;;;;;;;16.30;14.43;;;;;;;13.05;95.35;100613.03;10203608;28;20043;-60
2021/10/19 13:10:20;;;;;;;17.27;15.57;;;;;;;13.19;94.71;100604.69;10212356;28;20096;-59
2021/10/19 13:15:22;;;;;;;16.40;14.70;;;;;;;13.37;94.09;100606.78;10208021;28;20406;-58
2021/10/19 13:20:23;;;;;;;16.58;14.98;;;;;;;13.60;92.86;100602.09;10210526;28;20632;-60
2021/10/19 13:25:25;;;;;;;18.52;16.63;;;;;;;13.82;91.31;100605.56;10212998;28;20721;-59
2021/10/19 13:30:27;;;;;;;18.05;16.25;;;;;;;14.03;90.46;100606.31;10206910;28;20211;-59
2021/10/19 13:35:28;;;;;;;17.48;15.77;;;;;;;14.44;88.46;100612.47;10203544;28;20130;-59
2021/10/19 13:40:30;;;;;;;16.50;14.90;;;;;;;14.44;87.52;100600.88;10200454;28;20056;-59
2021/10/19 13:45:31;;;;;;;16.58;14.88;;;;;;;14.27;88.34;100599.75;10202766;28;20055;-60
2021/10/19 13:50:33;;;;;;;16.50;14.80;;;;;;;15.22;85.63;100600.81;10205622;28;20048;-60
2021/10/19 13:55:35;;;;;;;15.68;14.18;;;;;;;15.11;84.86;100592.97;10212613;28;20071;-60
2021/10/19 14:00:36;;;;;;;14.88;13.38;;;;;;;14.94;84.72;100597.25;10209299;28;20158;-61
2021/10/19 14:05:38;;;;;;;14.95;13.23;;;;;;;15.26;84.82;100596.88;10212341;28;20079;-60
2021/10/19 14:10:41;;;;;;;16.00;14.43;;;;;;;15.45;82.83;100592.44;10206695;28;20155;-59
2021/10/19 14:15:42;;;;;;;13.60;12.30;;;;;;;16.03;80.54;100583.28;10208279;28;20165;-60
2021/10/19 14:20:44;;;;;;;13.70;12.50;;;;;;;19.87;65.46;100574.09;10209900;28;20078;-60
2021/10/19 14:25:45;;;;;;;12.40;11.05;;;;;;;22.01;57.91;100574.88;10206443;28;20127;-62
2021/10/19 14:30:48;;;;;;;10.93;9.95;;;;;;;24.61;50.45;100569.44;10206055;28;20527;-61
2021/10/19 14:35:50;;;;;;;10.02;9.13;;;;;;;25.17;46.98;100573.59;10203637;28;20059;-61
2021/10/19 14:40:51;;;;;;;9.68;8.73;;;;;;;25.73;47.02;100562.16;10203686;28;20528;-62
2021/10/19 14:45:53;;;;;;;9.40;8.38;;;;;;;26.15;45.51;100552.72;10206605;28;22673;-61
2021/10/19 14:50:54;;;;;;;10.10;9.10;;;;;;;23.75;50.83;100551.81;10203845;28;20043;-62
2021/10/19 14:55:59;;;;;;;10.70;9.60;;;;;;;21.33;57.59;100550.63;10207570;28;20130;-61
2021/10/19 15:01:00;;;;;;;11.75;10.60;;;;;;;19.78;61.98;100540.88;10206322;28;20067;-61
2021/10/19 15:06:02;;;;;;;12.30;11.18;;;;;;;18.76;66.02;100556.81;10203279;28;20051;-61
2021/10/19 15:11:03;;;;;;;11.93;10.88;;;;;;;18.01;68.46;100548.69;10202980;28;21094;-61
2021/10/19 15:16:05;;;;;;;12.23;11.15;;;;;;;17.46;71.33;100538.38;10211352;28;20134;-60
2021/10/19 15:21:06;;;;;;;15.15;13.65;;;;;;;17.12;73.14;100536.50;10195638;28;20609;-61
2021/10/19 15:26:08;;;;;;;14.15;12.65;;;;;;;16.96;73.83;100530.03;10204861;28;20134;-61
2021/10/19 15:31:10;;;;;;;14.63;13.15;;;;;;;16.71;75.08;100523.63;10205007;28;20047;-60
2021/10/19 15:36:11;;;;;;;15.75;14.15;;;;;;;16.60;76.10;100521.16;10202032;28;20054;-60
2021/10/19 15:41:13;;;;;;;16.52;14.82;;;;;;;16.53;76.58;100520.97;10201264;28;20051;-60
2021/10/19 15:46:15;;;;;;;16.35;14.68;;;;;;;16.43;77.29;100512.97;10185739;28;20129;-60
2021/10/19 15:51:17;;;;;;;16.55;14.85;;;;;;;16.24;78.74;100516.69;10201938;28;20055;-60
2021/10/19 15:56:19;;;;;;;19.40;15.77;;;;;;;15.92;79.56;100517.22;10209236;28;20055;-60
2021/10/19 16:01:41;;;;;;;17.90;16.30;;;;;;;15.54;82.13;100513.75;10210118;28;20051;-60
2021/10/19 16:06:44;;;;;;;;;;;;;;;15.41;83.27;100513.25;10210628;28;20073;-60
2021/10/19 16:11:46;;;;;;;19.38;17.52;;;;;;;15.35;83.93;100509.31;10210084;28;19926;-60
2021/10/19 16:16:48;;;;;;;20.50;18.27;;;;;;;15.18;84.82;100513.63;10212499;28;20556;-60
2021/10/19 16:21:50;;;;;;;19.75;17.70;;;;;;;14.89;86.15;100509.19;10207931;28;20086;-60
2021/10/19 16:26:51;;;;;;;21.02;18.90;;;;;;;14.77;87.01;100515.72;10208249;28;20677;-59
2021/10/19 16:31:53;;;;;;;21.35;19.17;;;;;;;14.72;87.12;100513.47;10206011;28;20098;-59
2021/10/19 16:36:54;;;;;;;21.48;19.40;;;;;;;14.49;88.27;100497.69;10212754;28;20087;-59
2021/10/19 16:41:56;;;;;;;23.67;21.17;;;;;;;14.23;90.16;100501.94;10216454;28;20087;-60
2021/10/19 16:46:58;;;;;;;24.15;20.52;;;;;;;14.32;89.74;100493.91;10200998;28;20051;-56
2021/10/19 16:51:59;;;;;;;22.45;20.17;;;;;;;14.33;90.55;100503.63;10210701;28;20123;-56
2021/10/19 16:57:00;;;;;;;24.88;21.15;;;;;;;14.32;90.00;100498.41;10217572;28;21403;-56
2021/10/19 17:02:02;;;;;;;23.35;20.88;;;;;;;14.26;89.54;100499.84;10217147;28;20078;-56
2021/10/19 17:07:04;;;;;;;23.38;20.98;;;;;;;14.17;90.38;100499.81;10209886;28;20066;-59
2021/10/19 17:12:05;;;;;;;23.15;20.73;;;;;;;14.09;90.34;100501.38;10210954;28;20145;-59
2021/10/19 17:17:07;;;;;;;24.70;21.40;;;;;;;14.07;90.38;100514.06;10209625;28;20166;-59
2021/10/19 17:22:10;;;;;;;23.85;21.30;;;;;;;13.94;90.96;100513.47;10211408;28;20070;-58
2021/10/19 17:27:15;;;;;;;23.90;21.25;;;;;;;13.95;91.04;100525.88;10216837;28;20129;-58
2021/10/19 17:32:16;;;;;;;22.27;19.98;;;;;;;13.93;90.85;100527.84;10212773;28;20054;-59
2021/10/19 17:37:18;;;;;;;22.77;20.42;;;;;;;13.85;90.90;100530.38;10213304;28;20141;-60
2021/10/19 17:42:20;;;;;;;22.83;20.45;;;;;;;13.83;90.79;100521.66;10208099;28;20513;-59
2021/10/19 17:47:22;;;;;;;21.73;19.52;;;;;;;13.79;90.54;100523.72;10215285;28;20059;-59
2021/10/19 17:52:24;;;;;;;19.77;17.70;;;;;;;13.77;90.80;100521.19;10205776;28;20115;-59
2021/10/19 17:57:25;;;;;;;20.15;18.05;;;;;;;13.74;90.82;100524.16;10205423;28;20492;-59
2021/10/19 18:02:27;;;;;;;21.42;19.20;;;;;;;13.70;91.71;100532.59;10207871;28;20111;-60
2021/10/19 18:07:30;;;;;;;21.35;19.23;;;;;;;13.66;91.83;100534.69;10202674;28;20059;-60
2021/10/19 18:12:32;;;;;;;19.33;17.30;;;;;;;13.64;91.52;100539.31;10184175;28;20044;-60
2021/10/19 18:17:34;;;;;;;17.67;15.15;;;;;;;13.63;91.70;100537.66;10179981;28;20544;-60
2021/10/19 18:22:37;;;;;;;15.93;14.35;;;;;;;13.66;91.80;100541.88;10201559;28;20074;-60
2021/10/19 18:27:39;;;;;;;18.80;14.35;;;;;;;13.65;91.61;100530.31;10205573;28;20474;-59
2021/10/19 18:32:41;;;;;;;17.65;15.57;;;;;;;13.70;92.02;100533.44;10204517;28;20051;-59
2021/10/19 18:37:43;;;;;;;15.40;13.90;;;;;;;13.67;91.71;100527.50;10199148;28;20162;-60
2021/10/19 18:42:46;;;;;;;16.80;15.00;;;;;;;13.70;92.22;100521.88;10202475;28;20087;-56
2021/10/19 18:47:49;;;;;;;17.58;15.15;;;;;;;13.71;91.99;100521.75;10204257;28;20173;-56
2021/10/19 18:52:53;;;;;;;14.40;12.88;;;;;;;13.75;91.54;100519.63;10201813;28;20492;-56
2021/10/19 18:57:54;;;;;;;14.47;12.80;;;;;;;13.76;91.56;100511.47;10192330;28;20106;-55
2021/10/19 19:02:56;;;;;;;16.33;13.15;;;;;;;13.81;91.47;100507.53;10200606;28;20113;-56
2021/10/19 19:08:00;;;;;;;13.35;11.82;;;;;;;13.77;91.19;100499.78;10200482;28;20051;-61
2021/10/19 19:13:01;;;;;;;13.53;11.40;;;;;;;13.75;91.15;100499.09;10208241;28;20110;-61
2021/10/19 19:18:03;;;;;;;13.95;11.88;;;;;;;13.67;91.64;100490.91;10231939;23;20042;-64
2021/10/19 19:23:06;;;;;;;13.23;11.88;;;;;;;13.69;91.73;100498.78;10247728;28;20583;-65
2021/10/19 19:28:08;;;;;;;15.15;13.65;;;;;;;13.67;91.96;100501.59;10245820;28;20078;-64
2021/10/19 19:33:11;;;;;;;15.27;13.73;;;;;;;13.64;92.54;100496.53;10244557;28;20477;-64
2021/10/19 19:38:13;;;;;;;14.48;12.88;;;;;;;13.55;92.21;100492.84;10247582;28;20751;-66
2021/10/19 19:43:14;;;;;;;13.05;11.57;;;;;;;13.62;92.63;100493.16;10244606;28;20097;-65
2021/10/19 19:48:16;;;;;;;13.65;12.35;;;;;;;13.63;92.46;100499.34;10248994;28;20671;-65
2021/10/19 19:53:17;;;;;;;12.50;11.20;;;;;;;13.62;92.38;100487.81;10249284;28;20520;-64
2021/10/19 19:58:19;;;;;;;13.65;12.25;;;;;;;13.64;92.20;100482.31;10250441;28;20054;-65
2021/10/19 20:03:20;;;;;;;12.88;11.68;;;;;;;13.61;92.04;100480.75;10249569;28;20499;-66
2021/10/19 20:08:22;;;;;;;12.77;11.48;;;;;;;13.61;91.90;100481.59;10256429;28;20099;-66
2021/10/19 20:13:24;;;;;;;13.07;11.77;;;;;;;13.60;91.68;100479.06;10260648;28;20058;-65
2021/10/19 20:18:26;;;;;;;12.45;10.50;;;;;;;13.56;92.33;100472.31;10260823;28;20054;-64
2021/10/19 20:23:28;;;;;;;11.05;9.85;;;;;;;13.56;91.71;100461.63;10259591;28;20081;-66
2021/10/19 20:28:29;;;;;;;12.63;10.35;;;;;;;13.53;92.14;100467.25;10259526;28;20113;-65
2021/10/19 20:33:31;;;;;;;10.95;9.85;;;;;;;13.54;91.84;100471.59;10256855;28;20246;-65
2021/10/19 20:38:32;;;;;;;13.05;10.13;;;;;;;13.55;92.03;100462.59;10262530;28;20039;-65
2021/10/19 20:43:34;;;;;;;11.07;9.98;;;;;;;13.54;91.77;100463.56;10260497;28;20098;-65
2021/10/19 20:48:36;;;;;;;12.38;11.20;;;;;;;13.55;92.17;100463.41;10259943;28;20054;-66
2021/10/19 20:53:37;;;;;;;12.55;11.30;;;;;;;13.50;92.15;100457.66;10255814;28;20073;-65
2021/10/19 20:58:39;;;;;;;12.20;11.00;;;;;;;13.44;92.81;100459.03;10264129;28;20055;-65
2021/10/19 21:03:40;;;;;;;10.95;9.85;;;;;;;13.40;92.60;100468.31;10263724;28;20046;-65
2021/10/19 21:08:41;;;;;;;12.38;11.07;;;;;;;13.37;92.61;100457.88;10267978;28;20101;-65
2021/10/19 21:13:43;;;;;;;12.52;11.27;;;;;;;13.33;92.78;100448.44;10263189;28;20074;-64
2021/10/19 21:18:44;;;;;;;12.93;11.63;;;;;;;13.26;92.79;100452.63;10265857;28;20042;-64
2021/10/19 21:23:46;;;;;;;11.02;9.95;;;;;;;13.24;92.77;100457.25;10266909;28;20039;-65
2021/10/19 21:28:47;;;;;;;13.27;12.07;;;;;;;13.20;92.64;100462.03;10269422;28;20042;-64
2021/10/19 21:33:49;;;;;;;12.75;11.45;;;;;;;13.12;92.59;100444.97;10277164;28;20051;-65
2021/10/19 21:38:51;;;;;;;11.48;10.48;;;;;;;13.06;92.98;100436.53;10282031;28;20054;-65
2021/10/19 21:43:54;;;;;;;12.05;10.98;;;;;;;13.01;92.70;100429.91;10286297;28;20568;-64
2021/10/19 21:48:55;;;;;;;11.80;10.65;;;;;;;12.97;93.34;100429.34;10285862;28;20050;-65
2021/10/19 21:53:57;;;;;;;11.23;9.85;;;;;;;12.98;93.37;100420.31;10282063;28;20610;-64
2021/10/19 21:58:58;;;;;;;11.68;10.43;;;;;;;12.95;93.09;100415.25;10268309;28;20523;-63
2021/10/19 22:04:00;;;;;;;11.13;10.02;;;;;;;12.91;93.07;100419.19;10282872;28;20047;-64
2021/10/19 22:09:01;;;;;;;10.82;9.80;;;;;;;12.91;93.00;100425.38;10277847;28;20051;-64
2021/10/19 22:14:08;;;;;;;11.38;10.18;;;;;;;12.91;93.40;100414.69;10277027;28;20050;-64
2021/10/19 22:19:10;;;;;;;12.68;11.48;;;;;;;12.86;92.43;100406.22;10276710;28;20085;-64
2021/10/19 22:29:13;;;;;;;12.10;10.82;;;;;;;12.83;92.01;100403.81;10280267;28;20046;-64
2021/10/19 22:34:15;;;;;;;11.07;9.95;;;;;;;12.79;92.53;100389.06;10272041;28;24733;-64
2021/10/19 22:39:17;;;;;;;11.52;10.35;;;;;;;12.76;92.20;100388.47;10268257;28;20093;-64
2021/10/19 22:44:18;;;;;;;13.95;10.57;;;;;;;12.71;92.22;100384.34;10278692;28;20056;-64
2021/10/19 22:49:20;;;;;;;12.25;11.10;;;;;;;12.72;92.33;100388.72;10280804;28;20109;-63